MDPP - Puerto Plata
MDPP 080300Z 00000KT 9999 SCT017 28/25 Q1015
Observed:
visibility:
Flight Rules:
Cloud Levels:
Temperature:
Humidity:
Pressure: